Time;durP1;ratioP1;P1;durP2;ratioP2;P2;SDS_P1;SDS_P2;PMS_P1;PMS_P2;Temp;Humidity;BMP_temperature;BMP_pressure;BME280_temperature;BME280_humidity;BME280_pressure;Samples;Min_cycle;Max_cycle;Signal;HPM_P1;HPM_P2
2021/09/30 08:24:40;;;;;;;4.23;1.30;;;15.20;99.90;;;;;;4916512;29;20587;-68
2021/09/30 08:27:09;;;;;;;6.33;1.30;;;15.00;99.90;;;;;;4918052;29;20216;-68
2021/09/30 08:29:38;;;;;;;4.47;1.10;;;14.90;99.90;;;;;;4917954;29;20233;-69
2021/09/30 08:32:06;;;;;;;3.17;1.27;;;15.10;99.90;;;;;;4917932;29;20237;-69
2021/09/30 08:34:33;;;;;;;3.73;1.13;;;15.30;99.90;;;;;;4914747;29;20206;-69
2021/09/30 08:36:59;;;;;;;4.97;1.40;;;15.50;99.90;;;;;;4917753;29;20206;-69
2021/09/30 08:39:26;;;;;;;3.67;1.30;;;15.60;99.90;;;;;;4917652;29;20236;-70
2021/09/30 08:41:55;;;;;;;5.00;1.60;;;15.70;99.90;;;;;;4928614;29;20623;-69
2021/09/30 08:44:22;;;;;;;4.53;1.40;;;15.70;99.90;;;;;;4928853;29;20612;-69
2021/09/30 08:46:49;;;;;;;5.50;1.50;;;15.80;99.90;;;;;;4917713;29;20220;-69
2021/09/30 08:49:16;;;;;;;4.27;2.17;;;15.70;99.90;;;;;;4917628;29;20229;-68
2021/09/30 08:51:43;;;;;;;3.73;1.17;;;15.80;99.90;;;;;;4917230;29;20707;-68
2021/09/30 08:54:09;;;;;;;6.63;1.30;;;15.80;99.90;;;;;;4917366;29;20573;-68
2021/09/30 08:56:36;;;;;;;5.00;1.40;;;15.90;99.90;;;;;;4917685;29;20205;-68
2021/09/30 08:59:18;;;;;;;3.40;1.40;;;15.80;99.90;;;;;;4917561;29;20236;-68
2021/09/30 09:01:47;;;;;;;3.13;1.10;;;15.70;99.90;;;;;;4917193;29;20221;-68
2021/09/30 09:04:19;;;;;;;3.53;1.00;;;15.70;99.90;;;;;;4917163;29;20225;-69
2021/09/30 09:06:48;;;;;;;4.10;1.27;;;15.80;99.90;;;;;;4917475;29;20205;-68
2021/09/30 09:09:23;;;;;;;3.73;1.20;;;15.80;99.90;;;;;;4917233;29;20277;-68
2021/09/30 09:11:51;;;;;;;2.90;0.70;;;16.20;99.90;;;;;;4917108;29;20251;-70
2021/09/30 09:14:27;;;;;;;2.17;0.93;;;16.40;99.90;;;;;;4916989;29;20205;-69
2021/09/30 09:16:56;;;;;;;1.67;0.90;;;16.50;99.90;;;;;;4916638;29;20216;-71
2021/09/30 09:19:35;;;;;;;5.70;1.27;;;16.30;99.90;;;;;;4916765;29;20240;-68
2021/09/30 09:22:12;;;;;;;2.10;1.20;;;16.20;99.90;;;;;;4916592;29;20689;-68
2021/09/30 09:25:01;;;;;;;3.13;1.00;;;16.50;99.90;;;;;;4916693;29;20205;-69
2021/09/30 09:27:46;;;;;;;5.63;1.07;;;16.30;99.90;;;;;;4916550;29;20214;-68
2021/09/30 09:30:32;;;;;;;3.97;1.47;;;16.30;99.90;;;;;;4915255;29;20711;-68
2021/09/30 09:33:01;;;;;;;6.63;1.47;;;16.00;99.90;;;;;;4916927;29;20214;-68
2021/09/30 09:35:28;;;;;;;3.43;1.40;;;16.10;99.90;;;;;;4916296;29;20334;-68
2021/09/30 09:38:02;;;;;;;4.83;1.40;;;16.00;99.90;;;;;;4916257;29;20202;-68
2021/09/30 09:40:28;;;;;;;4.03;1.50;;;16.20;99.90;;;;;;4912280;29;20241;-68
2021/09/30 09:42:55;;;;;;;6.07;1.50;;;16.20;99.90;;;;;;4915018;29;20575;-68
2021/09/30 09:45:22;;;;;;;3.67;1.37;;;16.20;99.90;;;;;;4914370;29;20206;-70
2021/09/30 09:47:50;;;;;;;2.93;1.10;;;16.00;99.90;;;;;;4916184;29;20215;-68
2021/09/30 09:50:20;;;;;;;3.97;1.37;;;15.90;99.90;;;;;;4926549;29;20245;-67
2021/09/30 09:52:50;;;;;;;3.40;1.50;;;15.90;99.90;;;;;;4915246;29;20213;-71
2021/09/30 09:55:20;;;;;;;4.80;1.43;;;15.90;99.90;;;;;;4915036;29;20210;-69
2021/09/30 09:58:03;;;;;;;2.37;1.00;;;16.00;99.90;;;;;;4915239;29;20210;-70
2021/09/30 10:00:31;;;;;;;1.30;0.67;;;16.10;99.90;;;;;;4914836;29;20206;-74
2021/09/30 10:03:11;;;;;;;2.50;0.60;;;16.00;99.90;;;;;;4913189;29;20292;-71
2021/09/30 10:05:38;;;;;;;1.07;0.60;;;16.00;99.90;;;;;;4915122;29;20628;-73
2021/09/30 10:08:06;;;;;;;3.10;0.90;;;15.90;99.90;;;;;;4915500;29;20261;-73
2021/09/30 10:10:34;;;;;;;2.43;1.10;;;16.00;99.90;;;;;;4914711;29;20244;-78
2021/09/30 10:13:01;;;;;;;4.67;1.70;;;16.10;99.90;;;;;;4915246;29;20213;-72
2021/09/30 10:15:28;;;;;;;1.50;0.73;;;16.30;99.90;;;;;;4896197;29;20215;-73
2021/09/30 10:17:55;;;;;;;1.73;0.53;;;16.20;99.90;;;;;;4914778;29;20296;-73
2021/09/30 10:20:24;;;;;;;2.73;0.73;;;16.20;99.90;;;;;;4934576;29;20239;-73
2021/09/30 10:22:51;;;;;;;2.60;0.80;;;16.00;99.90;;;;;;4934883;29;20217;-74
2021/09/30 10:25:18;;;;;;;1.10;0.57;;;15.80;99.90;;;;;;4935285;29;20213;-73
2021/09/30 10:27:54;;;;;;;1.93;0.60;;;15.80;99.90;;;;;;4935231;29;20209;-73
2021/09/30 10:30:32;;;;;;;2.20;0.60;;;15.70;99.90;;;;;;4935038;29;20232;-72
2021/09/30 10:32:59;;;;;;;2.83;0.70;;;16.00;99.90;;;;;;4935321;29;20541;-73
2021/09/30 10:35:34;;;;;;;4.53;1.00;;;16.00;99.90;;;;;;4935215;29;20213;-72
2021/09/30 10:38:21;;;;;;;2.67;0.50;;;16.00;99.90;;;;;;4934862;29;20663;-72
2021/09/30 10:41:09;;;;;;;2.73;0.40;;;15.90;99.90;;;;;;4936702;29;20223;-74
2021/09/30 10:43:41;;;;;;;6.03;0.83;;;15.90;99.90;;;;;;4938907;29;20264;-72
2021/09/30 10:46:09;;;;;;;3.37;0.50;;;15.90;99.90;;;;;;4938608;29;20205;-72
2021/09/30 10:48:41;;;;;;;1.80;0.50;;;16.00;99.90;;;;;;4938480;29;20236;-72
2021/09/30 10:51:11;;;;;;;3.20;0.60;;;16.20;99.90;;;;;;4938377;29;20696;-72
2021/09/30 10:53:58;;;;;;;1.13;0.40;;;16.20;99.90;;;;;;4938281;29;20208;-72
2021/09/30 10:56:39;;;;;;;0.77;0.37;;;16.20;99.90;;;;;;4938230;29;20572;-73
2021/09/30 10:59:39;;;;;;;4.37;0.70;;;16.20;99.90;;;;;;4938640;29;20233;-72
2021/09/30 11:02:06;;;;;;;4.73;0.47;;;16.20;99.90;;;;;;4918854;29;20225;-70
2021/09/30 11:05:03;;;;;;;1.40;0.50;;;16.30;99.90;;;;;;4918695;29;20210;-70
2021/09/30 11:07:31;;;;;;;2.30;0.47;;;16.30;99.90;;;;;;4918049;29;20217;-70
2021/09/30 11:10:19;;;;;;;2.63;0.67;;;16.20;99.90;;;;;;4918386;29;20233;-70
2021/09/30 11:13:17;;;;;;;1.53;0.40;;;16.40;99.90;;;;;;4899718;29;20249;-70
2021/09/30 11:16:01;;;;;;;2.00;0.80;;;16.30;99.90;;;;;;4899597;29;20613;-72
2021/09/30 11:18:43;;;;;;;0.80;0.50;;;16.10;99.90;;;;;;4899506;29;20226;-69
2021/09/30 11:21:42;;;;;;;1.63;0.60;;;16.00;99.90;;;;;;4907583;29;20748;-71
2021/09/30 11:24:12;;;;;;;2.57;0.40;;;16.00;99.90;;;;;;4917841;29;20253;-71
2021/09/30 11:27:10;;;;;;;2.67;0.60;;;15.90;99.90;;;;;;4918344;29;20206;-70
2021/09/30 11:29:37;;;;;;;3.03;0.67;;;15.80;99.90;;;;;;4918160;29;20237;-70
2021/09/30 11:32:29;;;;;;;3.07;0.40;;;15.80;99.90;;;;;;4917117;29;20241;-70
2021/09/30 11:35:03;;;;;;;1.07;0.37;;;15.80;99.90;;;;;;4917774;29;20206;-70
2021/09/30 11:37:40;;;;;;;5.67;0.83;;;15.80;99.90;;;;;;4918648;29;20204;-72
2021/09/30 11:40:13;;;;;;;1.47;0.40;;;15.80;99.90;;;;;;4918899;29;20233;-78
2021/09/30 11:42:41;;;;;;;2.23;0.33;;;15.80;99.90;;;;;;4918873;29;20301;-74
2021/09/30 11:45:12;;;;;;;1.67;0.70;;;15.60;99.90;;;;;;4918712;29;20210;-73
2021/09/30 11:47:40;;;;;;;4.57;0.50;;;15.60;99.90;;;;;;4918803;29;20213;-68
2021/09/30 11:50:10;;;;;;;2.30;0.63;;;15.70;99.90;;;;;;4918830;29;20263;-69
2021/09/30 11:52:36;;;;;;;2.03;1.00;;;15.80;99.90;;;;;;4917817;29;20244;-70
2021/09/30 11:55:13;;;;;;;1.90;0.30;;;16.00;99.90;;;;;;4918681;29;20308;-68
2021/09/30 11:57:52;;;;;;;1.83;0.60;;;16.20;99.90;;;;;;4918716;29;20739;-69
2021/09/30 12:00:20;;;;;;;0.93;0.40;;;16.40;99.90;;;;;;4918817;29;20232;-73
2021/09/30 12:02:58;;;;;;;0.93;0.50;;;16.40;99.90;;;;;;4918588;29;20209;-74
2021/09/30 12:05:29;;;;;;;4.30;0.57;;;16.50;99.90;;;;;;4914471;29;20206;-79
2021/09/30 12:07:58;;;;;;;2.63;0.53;;;16.60;99.90;;;;;;4917055;29;20209;-75
2021/09/30 12:10:27;;;;;;;2.60;0.40;;;16.40;99.90;;;;;;4917102;29;20277;-73
2021/09/30 12:12:54;;;;;;;1.93;0.40;;;16.40;99.90;;;;;;4917577;29;20242;-76
2021/09/30 12:15:21;;;;;;;2.50;0.60;;;16.30;99.90;;;;;;4917249;29;20210;-75
2021/09/30 12:17:49;;;;;;;1.93;0.50;;;16.40;99.90;;;;;;4917293;29;20212;-77
2021/09/30 12:20:18;;;;;;;2.47;0.73;;;16.40;99.90;;;;;;4916883;29;20237;-75
2021/09/30 12:22:46;;;;;;;2.13;0.40;;;16.50;99.90;;;;;;4916776;29;20217;-74
2021/09/30 12:25:16;;;;;;;2.27;0.60;;;16.50;99.90;;;;;;4916639;29;20217;-75
2021/09/30 12:27:47;;;;;;;3.10;0.50;;;16.60;99.90;;;;;;4916978;29;20209;-75
2021/09/30 12:30:16;;;;;;;2.17;0.70;;;16.50;99.90;;;;;;4916527;29;20244;-75
2021/09/30 12:32:45;;;;;;;4.77;0.80;;;16.50;99.90;;;;;;4916588;29;20712;-75
2021/09/30 12:35:18;;;;;;;1.63;0.60;;;16.40;99.90;;;;;;4916097;29;20224;-71
2021/09/30 12:37:47;;;;;;;3.03;0.50;;;16.50;99.90;;;;;;4916195;29;20215;-74
2021/09/30 12:40:19;;;;;;;2.17;0.50;;;16.60;99.90;;;;;;4916331;29;20229;-74
2021/09/30 12:43:03;;;;;;;3.10;0.50;;;16.60;99.90;;;;;;4916708;29;20217;-72
2021/09/30 12:45:32;;;;;;;1.47;0.50;;;16.40;99.90;;;;;;4915888;29;20695;-70
2021/09/30 12:48:05;;;;;;;2.60;0.70;;;16.40;99.90;;;;;;4916392;29;20217;-69
2021/09/30 12:50:41;;;;;;;2.43;0.77;;;16.30;99.90;;;;;;4916198;29;20691;-73
2021/09/30 12:53:09;;;;;;;1.73;0.70;;;16.30;99.90;;;;;;4916306;29;20237;-73
2021/09/30 12:55:36;;;;;;;2.40;0.60;;;16.40;99.90;;;;;;4916393;29;20297;-76
2021/09/30 12:58:05;;;;;;;5.73;0.90;;;16.50;99.90;;;;;;4916500;29;20209;-75
2021/09/30 13:00:34;;;;;;;2.00;0.63;;;16.40;99.90;;;;;;4915735;29;20210;-74
2021/09/30 13:03:16;;;;;;;4.20;1.00;;;16.40;99.90;;;;;;4915869;29;20225;-72
2021/09/30 13:05:47;;;;;;;1.17;0.47;;;16.40;99.90;;;;;;4915555;29;20281;-70
2021/09/30 13:08:13;;;;;;;3.60;0.53;;;16.40;99.90;;;;;;4917149;29;20210;-71
2021/09/30 13:10:40;;;;;;;3.00;0.60;;;16.30;99.90;;;;;;4917396;29;20257;-71
2021/09/30 13:13:14;;;;;;;1.53;0.73;;;16.40;99.90;;;;;;4917095;29;20322;-72
2021/09/30 13:15:43;;;;;;;1.73;0.53;;;16.40;99.90;;;;;;4917613;29;20216;-73
2021/09/30 13:18:12;;;;;;;0.90;0.60;;;16.40;99.90;;;;;;4916624;29;20569;-72
2021/09/30 13:20:40;;;;;;;1.87;0.50;;;16.60;99.90;;;;;;4917249;29;20225;-72
2021/09/30 13:23:07;;;;;;;2.47;0.60;;;16.70;99.90;;;;;;4916660;29;20224;-72
2021/09/30 13:25:34;;;;;;;2.47;0.60;;;16.80;99.90;;;;;;4916933;29;20573;-69
2021/09/30 13:28:01;;;;;;;2.37;0.43;;;16.60;99.90;;;;;;4917313;29;20213;-71
2021/09/30 13:30:31;;;;;;;3.07;0.70;;;16.70;99.90;;;;;;4917022;29;20233;-70
2021/09/30 13:33:01;;;;;;;1.73;0.40;;;16.80;99.90;;;;;;4916470;29;20234;-71
2021/09/30 13:35:31;;;;;;;10.27;1.17;;;16.90;99.90;;;;;;4916513;29;20213;-76
2021/09/30 13:37:58;;;;;;;2.47;0.70;;;17.10;99.90;;;;;;4907901;29;20203;-70
2021/09/30 13:40:26;;;;;;;0.33;0.30;;;17.10;99.90;;;;;;4897524;29;20230;-71
2021/09/30 13:42:54;;;;;;;2.30;0.70;;;17.10;99.90;;;;;;4899911;29;20206;-74
2021/09/30 13:45:23;;;;;;;1.73;0.50;;;17.20;99.90;;;;;;4905933;29;20213;-69
2021/09/30 13:47:52;;;;;;;2.57;0.50;;;17.10;99.90;;;;;;4916305;29;20665;-69
2021/09/30 13:50:20;;;;;;;3.27;1.07;;;17.10;99.90;;;;;;4916383;29;20271;-69
2021/09/30 13:52:51;;;;;;;0.80;0.30;;;17.10;99.90;;;;;;4916143;29;20704;-69
2021/09/30 13:55:21;;;;;;;1.17;0.40;;;17.00;99.90;;;;;;4916610;29;20228;-72
2021/09/30 13:57:47;;;;;;;2.07;0.40;;;17.00;99.90;;;;;;4916621;29;20209;-71
2021/09/30 14:00:17;;;;;;;2.50;0.53;;;17.00;99.90;;;;;;4916475;29;20592;-74
2021/09/30 14:02:46;;;;;;;2.20;0.47;;;17.20;99.90;;;;;;4916552;29;20214;-71
2021/09/30 14:05:17;;;;;;;3.10;0.40;;;17.10;99.90;;;;;;4916401;29;20223;-75
2021/09/30 14:07:44;;;;;;;0.83;0.37;;;17.00;99.90;;;;;;4916230;29;20743;-70
2021/09/30 14:10:15;;;;;;;2.87;0.70;;;17.00;99.90;;;;;;4913135;29;20720;-67
2021/09/30 14:12:43;;;;;;;2.13;0.50;;;17.10;99.90;;;;;;4916353;29;20297;-70
2021/09/30 14:15:10;;;;;;;1.40;0.50;;;17.10;99.90;;;;;;4917218;29;20209;-73
2021/09/30 14:17:39;;;;;;;1.00;0.47;;;17.20;99.90;;;;;;4920097;29;20210;-70
2021/09/30 14:20:08;;;;;;;0.57;0.30;;;17.10;99.90;;;;;;4920073;29;20600;-76
2021/09/30 14:22:37;;;;;;;1.13;0.37;;;16.90;99.90;;;;;;4921785;29;20633;-70
2021/09/30 14:25:04;;;;;;;2.73;0.70;;;16.90;99.90;;;;;;4920794;29;20231;-73
2021/09/30 14:27:31;;;;;;;3.13;0.47;;;16.70;99.90;;;;;;4920628;29;20221;-76
2021/09/30 14:29:58;;;;;;;0.80;0.30;;;16.80;99.90;;;;;;4920533;29;20596;-72
2021/09/30 14:32:25;;;;;;;2.30;0.40;;;16.70;99.90;;;;;;4917067;29;20236;-78
2021/09/30 14:34:51;;;;;;;2.73;0.40;;;16.70;99.90;;;;;;4914885;29;20687;-72
2021/09/30 14:37:19;;;;;;;2.20;0.53;;;16.60;99.90;;;;;;4920068;29;20600;-76
2021/09/30 14:39:48;;;;;;;1.53;0.50;;;16.50;99.90;;;;;;4919617;29;20230;-76
2021/09/30 14:42:15;;;;;;;1.90;0.50;;;16.40;99.90;;;;;;4920008;29;20213;-77
2021/09/30 14:44:42;;;;;;;3.63;0.70;;;16.50;99.90;;;;;;4919870;29;20210;-76
2021/09/30 14:47:09;;;;;;;2.43;0.70;;;16.60;99.90;;;;;;4919471;29;20300;-77
2021/09/30 14:49:39;;;;;;;2.83;0.50;;;16.70;99.90;;;;;;4919629;29;20234;-75
2021/09/30 14:52:07;;;;;;;3.00;0.30;;;16.60;99.90;;;;;;4919689;29;20637;-76
2021/09/30 14:54:34;;;;;;;3.13;0.50;;;16.50;99.90;;;;;;4919955;29;20233;-76
2021/09/30 14:57:02;;;;;;;2.50;0.33;;;16.40;99.90;;;;;;4919644;29;20206;-77
2021/09/30 14:59:29;;;;;;;1.73;0.30;;;16.30;99.90;;;;;;4919579;29;20238;-77
2021/09/30 15:01:56;;;;;;;2.53;0.30;;;16.20;99.90;;;;;;4920187;29;20223;-68
2021/09/30 15:04:23;;;;;;;0.90;0.30;;;16.20;99.90;;;;;;4920345;29;20572;-75
2021/09/30 15:06:50;;;;;;;2.43;0.80;;;16.10;99.90;;;;;;4920788;29;20210;-76
2021/09/30 15:09:18;;;;;;;1.30;0.50;;;16.00;99.90;;;;;;4920404;29;20728;-77
2021/09/30 15:11:44;;;;;;;2.50;0.33;;;16.00;99.90;;;;;;4919790;29;20213;-75
2021/09/30 15:14:13;;;;;;;1.00;0.40;;;16.00;99.90;;;;;;4919915;29;20245;-75
2021/09/30 15:16:43;;;;;;;2.57;0.40;;;15.80;99.90;;;;;;4920363;29;20213;-76
2021/09/30 15:19:16;;;;;;;3.03;0.30;;;15.70;99.90;;;;;;4920268;29;20281;-70
2021/09/30 15:21:43;;;;;;;0.97;0.33;;;15.80;99.90;;;;;;4919858;29;20209;-70
2021/09/30 15:24:10;;;;;;;2.77;0.40;;;15.80;99.90;;;;;;4919122;29;20221;-75
2021/09/30 15:26:39;;;;;;;2.03;0.40;;;15.70;99.90;;;;;;4918468;29;20214;-76
2021/09/30 15:29:05;;;;;;;1.53;0.30;;;15.80;99.90;;;;;;4919686;29;20230;-77
2021/09/30 15:31:34;;;;;;;1.63;0.40;;;15.80;99.90;;;;;;4919719;29;20216;-76
2021/09/30 15:34:02;;;;;;;0.70;0.23;;;16.00;99.90;;;;;;4919400;29;20247;-76
2021/09/30 15:36:29;;;;;;;1.23;0.40;;;16.10;99.90;;;;;;4919219;29;20264;-74
2021/09/30 15:38:59;;;;;;;1.57;0.40;;;15.90;99.90;;;;;;4918496;29;20573;-72
2021/09/30 15:41:25;;;;;;;5.13;0.47;;;15.90;99.90;;;;;;4919126;29;20214;-72
2021/09/30 15:43:52;;;;;;;2.67;0.30;;;15.90;99.90;;;;;;4919073;29;20257;-76
2021/09/30 15:46:19;;;;;;;3.37;0.43;;;15.80;99.90;;;;;;4919093;29;20209;-75
2021/09/30 15:48:47;;;;;;;1.20;0.30;;;15.70;99.90;;;;;;4918893;29;20225;-68
2021/09/30 15:51:14;;;;;;;3.97;0.60;;;15.70;99.90;;;;;;4918894;29;20253;-77
2021/09/30 15:53:43;;;;;;;0.90;0.30;;;15.90;99.90;;;;;;4918368;29;20323;-77
2021/09/30 15:56:10;;;;;;;0.53;0.30;;;15.90;99.90;;;;;;4918664;29;20609;-77
2021/09/30 15:58:37;;;;;;;3.70;0.73;;;15.90;99.90;;;;;;4918730;29;20240;-76
2021/09/30 16:01:05;;;;;;;2.13;1.03;;;15.90;99.90;;;;;;4918912;29;20209;-76
2021/09/30 16:03:32;;;;;;;0.60;0.30;;;15.80;99.90;;;;;;4918386;29;20216;-77
2021/09/30 16:06:00;;;;;;;0.80;0.33;;;15.80;99.90;;;;;;4918148;29;20661;-76
2021/09/30 16:08:27;;;;;;;2.67;0.63;;;15.70;99.90;;;;;;4918477;29;20233;-74
2021/09/30 16:10:54;;;;;;;3.03;0.53;;;15.70;99.90;;;;;;4918706;29;20210;-76
2021/09/30 16:13:21;;;;;;;0.83;0.30;;;15.80;99.90;;;;;;4918324;29;20244;-76
2021/09/30 16:15:48;;;;;;;2.73;0.50;;;15.90;99.90;;;;;;4918204;29;20210;-77
2021/09/30 16:18:15;;;;;;;2.93;0.70;;;15.90;99.90;;;;;;4918242;29;20212;-71
2021/09/30 16:20:41;;;;;;;2.30;0.43;;;15.80;99.90;;;;;;4917939;29;20209;-71
2021/09/30 16:23:10;;;;;;;1.13;0.30;;;15.70;99.90;;;;;;4918093;29;20228;-67
2021/09/30 16:25:36;;;;;;;3.20;0.30;;;15.70;99.90;;;;;;4918262;29;20210;-70
2021/09/30 16:28:04;;;;;;;0.87;0.40;;;15.60;99.90;;;;;;4918193;29;20220;-76
2021/09/30 16:30:31;;;;;;;2.00;0.30;;;15.60;99.90;;;;;;4918741;29;20234;-67
2021/09/30 16:32:58;;;;;;;1.93;0.53;;;15.70;99.90;;;;;;4917804;29;20229;-68
2021/09/30 16:35:25;;;;;;;2.00;0.73;;;15.70;99.90;;;;;;4918396;29;20343;-68
2021/09/30 16:37:52;;;;;;;4.53;0.57;;;15.70;99.90;;;;;;4918056;29;20213;-67
2021/09/30 16:40:20;;;;;;;1.57;0.60;;;15.70;99.90;;;;;;4918111;29;20233;-69
2021/09/30 16:42:48;;;;;;;2.30;0.33;;;15.60;99.90;;;;;;4918022;29;20250;-68
2021/09/30 16:45:15;;;;;;;3.53;0.63;;;15.50;99.90;;;;;;4917849;29;20217;-69
2021/09/30 16:47:42;;;;;;;6.33;0.50;;;15.60;99.90;;;;;;4917979;29;20210;-67
2021/09/30 16:50:12;;;;;;;4.53;0.73;;;15.50;99.90;;;;;;4917795;29;20320;-74
2021/09/30 16:52:39;;;;;;;1.87;0.60;;;15.40;99.90;;;;;;4918528;29;20213;-71
2021/09/30 16:55:07;;;;;;;1.53;0.77;;;15.40;99.90;;;;;;4918297;29;20213;-77
2021/09/30 16:57:36;;;;;;;1.80;0.57;;;15.40;99.90;;;;;;4918124;29;20209;-68
2021/09/30 17:00:05;;;;;;;0.77;0.40;;;15.40;99.90;;;;;;4917688;29;20233;-71
2021/09/30 17:02:32;;;;;;;1.83;0.63;;;15.40;99.90;;;;;;4917569;29;20296;-70
2021/09/30 17:04:59;;;;;;;4.53;0.60;;;15.50;99.90;;;;;;4917694;29;20210;-77
2021/09/30 17:07:26;;;;;;;3.47;0.57;;;15.50;99.90;;;;;;4917369;29;20210;-77
2021/09/30 17:09:52;;;;;;;1.80;0.53;;;15.50;99.90;;;;;;4917500;29;20229;-75
2021/09/30 17:12:19;;;;;;;4.07;1.10;;;15.30;99.90;;;;;;4917498;29;20209;-76
2021/09/30 17:14:47;;;;;;;1.30;0.60;;;15.40;99.90;;;;;;4917945;29;20241;-77
2021/09/30 17:17:15;;;;;;;4.20;1.10;;;15.40;99.90;;;;;;4917989;29;20213;-76
2021/09/30 17:19:41;;;;;;;1.37;0.63;;;15.40;99.90;;;;;;4917164;29;20244;-77
2021/09/30 17:22:08;;;;;;;2.20;0.53;;;15.30;99.90;;;;;;4917248;29;20220;-76
2021/09/30 17:24:35;;;;;;;1.57;0.60;;;15.20;99.90;;;;;;4917343;29;20220;-76
2021/09/30 17:27:02;;;;;;;2.23;0.53;;;15.20;99.90;;;;;;4917197;29;20217;-76
2021/09/30 17:29:29;;;;;;;1.77;0.43;;;15.30;99.90;;;;;;4917040;29;20230;-77
2021/09/30 17:32:00;;;;;;;3.77;0.93;;;15.10;99.90;;;;;;4917218;29;20206;-77
2021/09/30 17:34:27;;;;;;;1.70;0.40;;;15.00;99.90;;;;;;4917153;29;20545;-76
2021/09/30 17:36:54;;;;;;;4.10;0.93;;;15.00;99.90;;;;;;4917028;29;20209;-77
2021/09/30 17:39:22;;;;;;;2.10;0.53;;;14.90;99.90;;;;;;4916722;29;20233;-76
2021/09/30 17:41:50;;;;;;;1.03;0.47;;;14.80;99.90;;;;;;4916901;29;20217;-76
2021/09/30 17:44:17;;;;;;;1.57;0.50;;;14.70;99.90;;;;;;4916855;29;20217;-77
2021/09/30 17:46:45;;;;;;;2.50;0.50;;;14.60;99.90;;;;;;4917331;29;20217;-78
2021/09/30 17:49:13;;;;;;;1.70;0.43;;;14.60;99.90;;;;;;4917322;29;20336;-76
2021/09/30 17:51:40;;;;;;;3.07;1.03;;;14.60;99.90;;;;;;4917233;29;20213;-70
2021/09/30 17:54:07;;;;;;;3.40;0.70;;;14.70;99.90;;;;;;4918842;29;20237;-77
2021/09/30 17:56:33;;;;;;;2.60;0.60;;;14.60;99.90;;;;;;4917717;29;20752;-77
2021/09/30 17:59:00;;;;;;;3.23;0.80;;;14.70;99.90;;;;;;4916777;29;20241;-76
2021/09/30 18:01:27;;;;;;;1.90;0.50;;;14.70;99.90;;;;;;4916812;29;20225;-76
2021/09/30 18:03:54;;;;;;;4.00;1.07;;;14.60;99.90;;;;;;4916942;29;20214;-76
2021/09/30 18:06:23;;;;;;;2.03;0.50;;;14.50;99.90;;;;;;4916826;29;20213;-77
2021/09/30 18:08:49;;;;;;;2.33;0.50;;;14.50;99.90;;;;;;4916662;29;20233;-76
2021/09/30 18:11:16;;;;;;;1.47;0.60;;;14.40;99.90;;;;;;4917292;29;20302;-75
2021/09/30 18:13:43;;;;;;;3.90;1.30;;;14.50;99.90;;;;;;4916843;29;20264;-78
2021/09/30 18:16:11;;;;;;;3.30;0.60;;;14.50;99.90;;;;;;4916551;29;20213;-77
2021/09/30 18:18:38;;;;;;;2.30;0.57;;;14.50;99.90;;;;;;4916462;29;20293;-74
2021/09/30 18:21:07;;;;;;;1.77;0.80;;;14.40;99.90;;;;;;4916774;29;20213;-78
2021/09/30 18:23:39;;;;;;;1.03;0.70;;;14.30;99.90;;;;;;4916336;29;20224;-77
2021/09/30 18:26:12;;;;;;;2.63;0.63;;;14.30;99.90;;;;;;4916543;29;20216;-77
2021/09/30 18:28:39;;;;;;;0.80;0.50;;;14.20;99.90;;;;;;4916433;29;20705;-74
2021/09/30 18:31:06;;;;;;;1.50;0.70;;;14.10;99.90;;;;;;4916419;29;20209;-77
2021/09/30 18:33:33;;;;;;;3.70;0.70;;;14.00;99.90;;;;;;4916330;29;20225;-77
2021/09/30 18:36:00;;;;;;;3.50;0.50;;;14.00;99.90;;;;;;4916374;29;20680;-78
2021/09/30 18:38:27;;;;;;;3.33;0.63;;;13.90;99.90;;;;;;4916181;29;20240;-77
2021/09/30 18:40:56;;;;;;;1.20;0.60;;;13.90;99.90;;;;;;4916494;29;20305;-77
2021/09/30 18:43:23;;;;;;;1.37;0.50;;;13.70;99.90;;;;;;4916647;29;20673;-76
2021/09/30 18:45:50;;;;;;;1.90;0.50;;;13.70;99.90;;;;;;4916680;29;20246;-77
2021/09/30 18:48:17;;;;;;;1.90;0.47;;;13.70;99.90;;;;;;4916207;29;20209;-74
2021/09/30 18:50:44;;;;;;;0.83;0.50;;;13.60;99.90;;;;;;4916104;29;20218;-78
2021/09/30 18:53:11;;;;;;;2.13;0.60;;;13.50;99.90;;;;;;4916185;29;20550;-77
2021/09/30 18:55:38;;;;;;;0.70;0.30;;;13.40;99.90;;;;;;4916279;29;20217;-78
2021/09/30 18:58:06;;;;;;;1.47;0.60;;;13.50;99.90;;;;;;4916433;29;20213;-78
2021/09/30 19:00:33;;;;;;;2.77;0.53;;;13.50;99.90;;;;;;4916276;29;20210;-76
2021/09/30 19:03:01;;;;;;;1.37;0.60;;;13.40;99.90;;;;;;4919487;29;20209;-77
2021/09/30 19:05:33;;;;;;;1.50;0.70;;;13.30;99.90;;;;;;4919583;29;20213;-77
2021/09/30 19:08:00;;;;;;;3.13;0.60;;;13.40;99.90;;;;;;4919324;29;20209;-77
2021/09/30 19:10:27;;;;;;;4.10;0.73;;;13.40;99.90;;;;;;4921945;29;20240;-77
2021/09/30 19:12:54;;;;;;;0.80;0.40;;;13.50;99.90;;;;;;4924642;29;20206;-75
2021/09/30 19:15:22;;;;;;;1.90;0.50;;;13.50;99.90;;;;;;4922117;29;20264;-76
2021/09/30 19:17:49;;;;;;;2.17;0.50;;;13.50;99.90;;;;;;4919332;29;20572;-76
2021/09/30 19:20:16;;;;;;;2.07;0.50;;;13.60;99.90;;;;;;4919558;29;20237;-76
2021/09/30 19:22:44;;;;;;;1.37;0.43;;;13.50;99.90;;;;;;4918999;29;20220;-74
2021/09/30 19:25:13;;;;;;;1.43;0.60;;;13.50;99.90;;;;;;4919312;29;20236;-74
2021/09/30 19:27:42;;;;;;;1.10;0.40;;;13.40;99.90;;;;;;4919999;29;20245;-76
2021/09/30 19:30:10;;;;;;;3.47;0.63;;;13.40;99.90;;;;;;4919147;29;20229;-71
2021/09/30 19:32:38;;;;;;;2.60;0.80;;;13.40;99.90;;;;;;4918805;29;20618;-77
2021/09/30 19:35:06;;;;;;;1.77;0.60;;;13.30;99.90;;;;;;4919217;29;20248;-74
2021/09/30 19:37:33;;;;;;;1.37;0.53;;;13.30;99.90;;;;;;4919031;29;20249;-71
2021/09/30 19:40:00;;;;;;;0.83;0.60;;;13.20;99.90;;;;;;4919253;29;20605;-78
2021/09/30 19:42:27;;;;;;;1.80;0.70;;;13.20;99.90;;;;;;4919011;29;20240;-79
2021/09/30 19:44:54;;;;;;;2.17;0.50;;;13.10;99.90;;;;;;4918629;29;20681;-77
2021/09/30 19:47:22;;;;;;;1.77;1.10;;;13.10;99.90;;;;;;4919194;29;20213;-73
2021/09/30 19:49:50;;;;;;;3.03;0.50;;;13.10;99.90;;;;;;4918594;29;20233;-77
2021/09/30 19:52:17;;;;;;;2.10;0.90;;;13.00;99.90;;;;;;4919422;29;20699;-77
2021/09/30 19:54:44;;;;;;;0.97;0.50;;;12.90;99.90;;;;;;4919039;29;20245;-73
2021/09/30 19:57:11;;;;;;;3.40;0.90;;;12.80;99.90;;;;;;4919219;29;20220;-77
2021/09/30 19:59:37;;;;;;;1.87;0.50;;;12.80;99.90;;;;;;4918642;29;20573;-71
2021/09/30 20:02:04;;;;;;;3.20;0.60;;;12.70;99.90;;;;;;4918687;29;20214;-72
2021/09/30 20:04:31;;;;;;;3.40;0.80;;;12.70;99.90;;;;;;4918479;29;20220;-75
2021/09/30 20:06:59;;;;;;;3.00;0.53;;;12.70;99.90;;;;;;4918047;29;20214;-73
2021/09/30 20:09:26;;;;;;;1.20;0.50;;;12.70;99.90;;;;;;4917845;29;20229;-69
2021/09/30 20:11:54;;;;;;;2.10;0.47;;;12.60;99.90;;;;;;4917954;29;20680;-73
2021/09/30 20:14:20;;;;;;;0.97;0.60;;;12.60;99.90;;;;;;4917382;29;20238;-70
2021/09/30 20:16:47;;;;;;;2.10;0.53;;;12.70;99.90;;;;;;4917958;29;20213;-74
2021/09/30 20:19:30;;;;;;;3.27;0.63;;;12.70;99.90;;;;;;4918425;29;20241;-71
2021/09/30 20:21:58;;;;;;;1.47;0.70;;;12.60;99.90;;;;;;4918557;29;20213;-73
2021/09/30 20:24:27;;;;;;;1.17;0.67;;;12.60;99.90;;;;;;4917762;29;20292;-73
2021/09/30 20:26:54;;;;;;;4.67;1.03;;;12.50;99.90;;;;;;4917909;29;20216;-70
2021/09/30 20:29:20;;;;;;;1.10;0.60;;;12.50;99.90;;;;;;4917892;29;20659;-77
2021/09/30 20:31:47;;;;;;;1.73;0.60;;;12.50;99.90;;;;;;4902516;29;20769;-72
2021/09/30 20:34:16;;;;;;;2.00;0.60;;;12.50;99.90;;;;;;4898835;29;20248;-72
2021/09/30 20:36:43;;;;;;;4.50;0.87;;;12.50;99.90;;;;;;4899046;29;20206;-72
2021/09/30 20:39:11;;;;;;;0.90;0.50;;;12.40;99.90;;;;;;4898640;29;20727;-73
2021/09/30 20:41:38;;;;;;;1.93;1.00;;;12.40;99.90;;;;;;4899077;29;20214;-71
2021/09/30 20:44:05;;;;;;;1.60;0.50;;;12.40;99.90;;;;;;4898712;29;20211;-70
2021/09/30 20:46:32;;;;;;;3.20;0.83;;;12.40;99.90;;;;;;4898681;29;20206;-71
2021/09/30 20:48:59;;;;;;;0.80;0.57;;;12.40;99.90;;;;;;4898197;29;20237;-71
2021/09/30 20:51:26;;;;;;;0.60;0.43;;;12.40;99.90;;;;;;4898432;29;20305;-72
2021/09/30 20:53:53;;;;;;;3.43;0.60;;;12.40;99.90;;;;;;4898919;29;20220;-73
2021/09/30 20:56:21;;;;;;;3.03;0.80;;;12.40;99.90;;;;;;4900077;29;20213;-75
2021/09/30 20:58:48;;;;;;;2.30;0.70;;;12.40;99.90;;;;;;4915105;29;20598;-70
